Terminal Aerodrome Forecast
Issued by NWS Cleveland, OH

Home | Current Version | Previous Version | Graphics & Text | Print | Product List | Glossary Off
Versions: 1 2 3 4 5 6 7 8 9 10 11 12 13 14 15

002
FTUS41 KCLE 130527
TAFTOL
TAF
KTOL 130527Z 1306/1406 34010G20KT P6SM SCT035
     FM131000 30012KT P6SM SCT035
     FM131700 30012G20KT P6SM BKN035=

USA.gov is the U.S. government's official web portal to all federal, state and local government web resources and services.